sensor_id;sensor_type;location;lat;lon;timestamp;P1;durP1;ratioP1;P2;durP2;ratioP2
66800;SDS011;53703;50.326;19.122;2023-04-03T00:02:06;3.80;;;2.00;;
66800;SDS011;53703;50.326;19.122;2023-04-03T00:05:00;3.70;;;2.30;;
66800;SDS011;53703;50.326;19.122;2023-04-03T00:07:53;4.30;;;2.20;;
66800;SDS011;53703;50.326;19.122;2023-04-03T00:10:47;3.80;;;2.10;;
66800;SDS011;53703;50.326;19.122;2023-04-03T00:13:41;4.50;;;2.20;;
66800;SDS011;53703;50.326;19.122;2023-04-03T00:16:35;3.30;;;2.10;;
66800;SDS011;53703;50.326;19.122;2023-04-03T00:19:29;4.50;;;2.00;;
66800;SDS011;53703;50.326;19.122;2023-04-03T00:22:23;6.20;;;2.50;;
66800;SDS011;53703;50.326;19.122;2023-04-03T00:25:17;4.10;;;2.20;;
66800;SDS011;53703;50.326;19.122;2023-04-03T00:28:11;3.80;;;2.10;;
66800;SDS011;53703;50.326;19.122;2023-04-03T00:31:05;4.40;;;1.90;;
66800;SDS011;53703;50.326;19.122;2023-04-03T00:33:59;4.70;;;2.10;;
66800;SDS011;53703;50.326;19.122;2023-04-03T00:36:53;3.40;;;1.90;;
66800;SDS011;53703;50.326;19.122;2023-04-03T00:39:47;3.60;;;1.90;;
66800;SDS011;53703;50.326;19.122;2023-04-03T00:42:41;3.40;;;1.80;;
66800;SDS011;53703;50.326;19.122;2023-04-03T00:45:38;3.30;;;1.90;;
66800;SDS011;53703;50.326;19.122;2023-04-03T00:48:34;2.90;;;1.60;;
66800;SDS011;53703;50.326;19.122;2023-04-03T00:51:31;3.10;;;1.80;;
66800;SDS011;53703;50.326;19.122;2023-04-03T00:54:25;3.70;;;1.90;;
66800;SDS011;53703;50.326;19.122;2023-04-03T00:57:19;3.40;;;1.80;;
66800;SDS011;53703;50.326;19.122;2023-04-03T01:00:17;3.60;;;1.70;;
66800;SDS011;53703;50.326;19.122;2023-04-03T01:02:56;3.00;;;1.90;;
66800;SDS011;53703;50.326;19.122;2023-04-03T01:05:50;3.90;;;1.70;;
66800;SDS011;53703;50.326;19.122;2023-04-03T01:08:44;3.30;;;1.70;;
66800;SDS011;53703;50.326;19.122;2023-04-03T01:11:40;3.00;;;1.80;;
66800;SDS011;53703;50.326;19.122;2023-04-03T01:14:34;3.60;;;1.90;;
66800;SDS011;53703;50.326;19.122;2023-04-03T01:17:32;2.20;;;1.40;;
66800;SDS011;53703;50.326;19.122;2023-04-03T01:21:17;2.90;;;1.70;;
66800;SDS011;53703;50.326;19.122;2023-04-03T01:24:54;3.50;;;1.50;;
66800;SDS011;53703;50.326;19.122;2023-04-03T01:27:48;3.40;;;2.00;;
66800;SDS011;53703;50.326;19.122;2023-04-03T01:30:45;2.80;;;1.60;;
66800;SDS011;53703;50.326;19.122;2023-04-03T01:34:03;3.30;;;1.50;;
66800;SDS011;53703;50.326;19.122;2023-04-03T01:36:56;3.40;;;1.90;;
66800;SDS011;53703;50.326;19.122;2023-04-03T01:39:50;2.80;;;1.70;;
66800;SDS011;53703;50.326;19.122;2023-04-03T01:42:44;4.40;;;2.00;;
66800;SDS011;53703;50.326;19.122;2023-04-03T01:45:37;3.00;;;2.30;;
66800;SDS011;53703;50.326;19.122;2023-04-03T01:48:31;3.30;;;1.90;;
66800;SDS011;53703;50.326;19.122;2023-04-03T01:51:25;4.20;;;1.80;;
66800;SDS011;53703;50.326;19.122;2023-04-03T01:54:19;3.50;;;1.70;;
66800;SDS011;53703;50.326;19.122;2023-04-03T01:57:13;3.40;;;1.80;;
66800;SDS011;53703;50.326;19.122;2023-04-03T02:00:09;4.00;;;2.10;;
66800;SDS011;53703;50.326;19.122;2023-04-03T02:03:04;3.40;;;1.90;;
66800;SDS011;53703;50.326;19.122;2023-04-03T02:05:58;2.80;;;1.90;;
66800;SDS011;53703;50.326;19.122;2023-04-03T02:08:52;3.50;;;1.90;;
66800;SDS011;53703;50.326;19.122;2023-04-03T02:11:46;4.00;;;2.20;;
66800;SDS011;53703;50.326;19.122;2023-04-03T02:14:39;3.40;;;2.00;;
66800;SDS011;53703;50.326;19.122;2023-04-03T02:17:33;2.90;;;1.70;;
66800;SDS011;53703;50.326;19.122;2023-04-03T02:20:28;3.30;;;2.10;;
66800;SDS011;53703;50.326;19.122;2023-04-03T02:23:22;5.20;;;1.80;;
66800;SDS011;53703;50.326;19.122;2023-04-03T02:26:16;4.80;;;2.10;;
66800;SDS011;53703;50.326;19.122;2023-04-03T02:29:10;3.50;;;2.00;;
66800;SDS011;53703;50.326;19.122;2023-04-03T02:32:04;4.30;;;2.20;;
66800;SDS011;53703;50.326;19.122;2023-04-03T02:34:58;2.80;;;1.90;;
66800;SDS011;53703;50.326;19.122;2023-04-03T02:37:52;5.40;;;2.10;;
66800;SDS011;53703;50.326;19.122;2023-04-03T02:40:46;3.90;;;2.00;;
66800;SDS011;53703;50.326;19.122;2023-04-03T02:43:40;2.80;;;1.80;;
66800;SDS011;53703;50.326;19.122;2023-04-03T02:46:33;3.20;;;1.90;;
66800;SDS011;53703;50.326;19.122;2023-04-03T02:49:27;8.50;;;1.80;;
66800;SDS011;53703;50.326;19.122;2023-04-03T02:52:21;2.60;;;1.80;;
66800;SDS011;53703;50.326;19.122;2023-04-03T02:55:16;4.70;;;2.20;;
66800;SDS011;53703;50.326;19.122;2023-04-03T02:58:10;4.50;;;2.00;;
66800;SDS011;53703;50.326;19.122;2023-04-03T03:01:04;3.80;;;2.10;;
66800;SDS011;53703;50.326;19.122;2023-04-03T03:03:58;3.30;;;1.90;;
66800;SDS011;53703;50.326;19.122;2023-04-03T03:06:51;3.70;;;1.90;;
66800;SDS011;53703;50.326;19.122;2023-04-03T03:09:45;5.20;;;2.00;;
66800;SDS011;53703;50.326;19.122;2023-04-03T03:12:39;3.20;;;2.00;;
66800;SDS011;53703;50.326;19.122;2023-04-03T03:15:33;3.30;;;2.00;;
66800;SDS011;53703;50.326;19.122;2023-04-03T03:18:27;3.20;;;1.90;;
66800;SDS011;53703;50.326;19.122;2023-04-03T03:21:21;4.20;;;1.90;;
66800;SDS011;53703;50.326;19.122;2023-04-03T03:24:15;5.10;;;2.10;;
66800;SDS011;53703;50.326;19.122;2023-04-03T03:27:09;3.70;;;2.20;;
66800;SDS011;53703;50.326;19.122;2023-04-03T03:30:03;3.60;;;2.00;;
66800;SDS011;53703;50.326;19.122;2023-04-03T03:32:59;3.10;;;1.80;;
66800;SDS011;53703;50.326;19.122;2023-04-03T03:35:53;4.10;;;1.80;;
66800;SDS011;53703;50.326;19.122;2023-04-03T03:38:47;4.40;;;2.10;;
66800;SDS011;53703;50.326;19.122;2023-04-03T03:41:41;3.90;;;1.90;;
66800;SDS011;53703;50.326;19.122;2023-04-03T03:44:35;2.50;;;1.60;;
66800;SDS011;53703;50.326;19.122;2023-04-03T03:47:29;3.40;;;1.80;;
66800;SDS011;53703;50.326;19.122;2023-04-03T03:50:08;7.60;;;2.10;;
66800;SDS011;53703;50.326;19.122;2023-04-03T03:53:02;3.50;;;1.80;;
66800;SDS011;53703;50.326;19.122;2023-04-03T03:55:56;5.10;;;2.00;;
66800;SDS011;53703;50.326;19.122;2023-04-03T03:58:50;4.70;;;1.90;;
66800;SDS011;53703;50.326;19.122;2023-04-03T04:01:43;3.00;;;1.80;;
66800;SDS011;53703;50.326;19.122;2023-04-03T04:04:37;6.30;;;2.10;;
66800;SDS011;53703;50.326;19.122;2023-04-03T04:07:31;3.50;;;1.80;;
66800;SDS011;53703;50.326;19.122;2023-04-03T04:10:25;3.10;;;1.90;;
66800;SDS011;53703;50.326;19.122;2023-04-03T04:13:19;4.40;;;2.00;;
66800;SDS011;53703;50.326;19.122;2023-04-03T04:16:12;3.60;;;1.90;;
66800;SDS011;53703;50.326;19.122;2023-04-03T04:19:06;4.00;;;2.00;;
66800;SDS011;53703;50.326;19.122;2023-04-03T04:22:00;5.50;;;1.90;;
66800;SDS011;53703;50.326;19.122;2023-04-03T04:24:55;3.80;;;2.20;;
66800;SDS011;53703;50.326;19.122;2023-04-03T04:27:48;3.80;;;2.00;;
66800;SDS011;53703;50.326;19.122;2023-04-03T04:30:42;5.10;;;2.30;;
66800;SDS011;53703;50.326;19.122;2023-04-03T04:33:36;5.60;;;2.10;;
66800;SDS011;53703;50.326;19.122;2023-04-03T04:36:30;4.40;;;1.80;;
66800;SDS011;53703;50.326;19.122;2023-04-03T04:39:24;3.30;;;1.90;;
66800;SDS011;53703;50.326;19.122;2023-04-03T04:42:18;3.60;;;2.10;;
66800;SDS011;53703;50.326;19.122;2023-04-03T04:45:12;3.60;;;1.80;;
66800;SDS011;53703;50.326;19.122;2023-04-03T04:48:06;3.30;;;2.10;;
66800;SDS011;53703;50.326;19.122;2023-04-03T04:51:00;4.40;;;2.00;;
66800;SDS011;53703;50.326;19.122;2023-04-03T04:53:54;3.60;;;1.90;;
66800;SDS011;53703;50.326;19.122;2023-04-03T04:56:48;3.70;;;1.80;;
66800;SDS011;53703;50.326;19.122;2023-04-03T04:59:42;3.00;;;1.70;;
66800;SDS011;53703;50.326;19.122;2023-04-03T05:02:35;3.30;;;1.50;;
66800;SDS011;53703;50.326;19.122;2023-04-03T05:05:29;4.70;;;1.90;;
66800;SDS011;53703;50.326;19.122;2023-04-03T05:08:23;3.90;;;2.10;;
66800;SDS011;53703;50.326;19.122;2023-04-03T05:11:18;4.20;;;2.00;;
66800;SDS011;53703;50.326;19.122;2023-04-03T05:14:15;3.80;;;2.10;;
66800;SDS011;53703;50.326;19.122;2023-04-03T05:17:09;3.90;;;1.90;;
66800;SDS011;53703;50.326;19.122;2023-04-03T05:20:04;4.10;;;2.00;;
66800;SDS011;53703;50.326;19.122;2023-04-03T05:22:59;3.60;;;1.70;;
66800;SDS011;53703;50.326;19.122;2023-04-03T05:25:53;4.30;;;2.00;;
66800;SDS011;53703;50.326;19.122;2023-04-03T05:28:46;4.70;;;2.10;;
66800;SDS011;53703;50.326;19.122;2023-04-03T05:31:40;5.70;;;2.20;;
66800;SDS011;53703;50.326;19.122;2023-04-03T05:34:34;3.50;;;1.90;;
66800;SDS011;53703;50.326;19.122;2023-04-03T05:37:28;2.90;;;1.70;;
66800;SDS011;53703;50.326;19.122;2023-04-03T05:40:21;3.40;;;1.70;;
66800;SDS011;53703;50.326;19.122;2023-04-03T05:43:16;4.60;;;2.00;;
66800;SDS011;53703;50.326;19.122;2023-04-03T05:46:12;6.60;;;1.90;;
66800;SDS011;53703;50.326;19.122;2023-04-03T05:49:07;3.40;;;1.90;;
66800;SDS011;53703;50.326;19.122;2023-04-03T05:52:01;3.90;;;2.10;;
66800;SDS011;53703;50.326;19.122;2023-04-03T05:54:55;4.40;;;2.00;;
66800;SDS011;53703;50.326;19.122;2023-04-03T05:57:49;5.40;;;2.10;;
66800;SDS011;53703;50.326;19.122;2023-04-03T06:00:43;6.70;;;2.20;;
66800;SDS011;53703;50.326;19.122;2023-04-03T06:03:37;4.50;;;2.40;;
66800;SDS011;53703;50.326;19.122;2023-04-03T06:06:46;4.20;;;1.90;;
66800;SDS011;53703;50.326;19.122;2023-04-03T06:12:35;4.40;;;2.10;;
66800;SDS011;53703;50.326;19.122;2023-04-03T06:15:28;6.10;;;2.30;;
66800;SDS011;53703;50.326;19.122;2023-04-03T06:18:19;3.30;;;1.70;;
66800;SDS011;53703;50.326;19.122;2023-04-03T06:21:13;4.40;;;2.00;;
66800;SDS011;53703;50.326;19.122;2023-04-03T06:24:07;4.60;;;2.20;;
66800;SDS011;53703;50.326;19.122;2023-04-03T06:27:01;4.20;;;1.90;;
66800;SDS011;53703;50.326;19.122;2023-04-03T06:29:55;6.30;;;2.30;;
66800;SDS011;53703;50.326;19.122;2023-04-03T06:32:49;3.90;;;2.20;;
66800;SDS011;53703;50.326;19.122;2023-04-03T06:35:43;5.30;;;2.20;;
66800;SDS011;53703;50.326;19.122;2023-04-03T06:38:37;3.60;;;2.00;;
66800;SDS011;53703;50.326;19.122;2023-04-03T06:41:31;3.20;;;1.90;;
66800;SDS011;53703;50.326;19.122;2023-04-03T06:44:26;4.50;;;2.10;;
66800;SDS011;53703;50.326;19.122;2023-04-03T06:47:20;5.30;;;2.10;;
66800;SDS011;53703;50.326;19.122;2023-04-03T06:50:14;5.30;;;2.30;;
66800;SDS011;53703;50.326;19.122;2023-04-03T06:53:08;6.10;;;2.10;;
66800;SDS011;53703;50.326;19.122;2023-04-03T06:56:02;4.90;;;2.10;;
66800;SDS011;53703;50.326;19.122;2023-04-03T06:58:57;3.70;;;2.00;;
66800;SDS011;53703;50.326;19.122;2023-04-03T07:01:51;4.40;;;1.90;;
66800;SDS011;53703;50.326;19.122;2023-04-03T07:04:45;4.60;;;2.20;;
66800;SDS011;53703;50.326;19.122;2023-04-03T07:07:39;6.80;;;1.90;;
66800;SDS011;53703;50.326;19.122;2023-04-03T07:10:33;3.60;;;1.90;;
66800;SDS011;53703;50.326;19.122;2023-04-03T07:13:19;3.50;;;1.80;;
66800;SDS011;53703;50.326;19.122;2023-04-03T07:16:13;8.80;;;2.10;;
66800;SDS011;53703;50.326;19.122;2023-04-03T07:19:07;4.00;;;2.00;;
66800;SDS011;53703;50.326;19.122;2023-04-03T07:22:01;3.80;;;2.10;;
66800;SDS011;53703;50.326;19.122;2023-04-03T07:24:55;4.40;;;2.00;;
66800;SDS011;53703;50.326;19.122;2023-04-03T07:27:49;4.20;;;2.20;;
66800;SDS011;53703;50.326;19.122;2023-04-03T07:30:46;4.00;;;1.80;;
66800;SDS011;53703;50.326;19.122;2023-04-03T07:33:32;3.80;;;2.10;;
66800;SDS011;53703;50.326;19.122;2023-04-03T07:36:26;3.90;;;2.10;;
66800;SDS011;53703;50.326;19.122;2023-04-03T07:39:23;4.50;;;2.00;;
66800;SDS011;53703;50.326;19.122;2023-04-03T07:42:18;5.10;;;2.00;;
66800;SDS011;53703;50.326;19.122;2023-04-03T07:45:12;7.80;;;2.20;;
66800;SDS011;53703;50.326;19.122;2023-04-03T07:48:08;4.20;;;2.20;;
66800;SDS011;53703;50.326;19.122;2023-04-03T07:51:03;5.20;;;2.10;;
66800;SDS011;53703;50.326;19.122;2023-04-03T07:53:57;4.70;;;2.10;;
66800;SDS011;53703;50.326;19.122;2023-04-03T07:56:51;8.90;;;2.30;;
66800;SDS011;53703;50.326;19.122;2023-04-03T07:59:45;5.80;;;2.20;;
66800;SDS011;53703;50.326;19.122;2023-04-03T08:02:39;5.00;;;2.10;;
66800;SDS011;53703;50.326;19.122;2023-04-03T08:05:34;3.80;;;2.00;;
66800;SDS011;53703;50.326;19.122;2023-04-03T08:08:30;5.70;;;2.00;;
66800;SDS011;53703;50.326;19.122;2023-04-03T08:11:24;5.90;;;2.40;;
66800;SDS011;53703;50.326;19.122;2023-04-03T08:14:18;7.70;;;2.40;;
66800;SDS011;53703;50.326;19.122;2023-04-03T08:17:12;6.60;;;2.20;;
66800;SDS011;53703;50.326;19.122;2023-04-03T08:20:07;8.10;;;2.30;;
66800;SDS011;53703;50.326;19.122;2023-04-03T08:23:01;6.80;;;2.30;;
66800;SDS011;53703;50.326;19.122;2023-04-03T08:25:55;4.90;;;2.10;;
66800;SDS011;53703;50.326;19.122;2023-04-03T08:28:49;5.80;;;2.20;;
66800;SDS011;53703;50.326;19.122;2023-04-03T08:31:43;8.70;;;2.70;;
66800;SDS011;53703;50.326;19.122;2023-04-03T08:34:37;5.70;;;2.10;;
66800;SDS011;53703;50.326;19.122;2023-04-03T08:37:30;5.70;;;2.10;;
66800;SDS011;53703;50.326;19.122;2023-04-03T08:40:26;4.80;;;2.20;;
66800;SDS011;53703;50.326;19.122;2023-04-03T08:43:29;4.90;;;2.10;;
66800;SDS011;53703;50.326;19.122;2023-04-03T08:46:38;4.80;;;2.00;;
66800;SDS011;53703;50.326;19.122;2023-04-03T08:49:41;6.10;;;2.20;;
66800;SDS011;53703;50.326;19.122;2023-04-03T08:52:40;6.80;;;2.30;;
66800;SDS011;53703;50.326;19.122;2023-04-03T08:55:39;5.20;;;2.20;;
66800;SDS011;53703;50.326;19.122;2023-04-03T08:58:40;5.80;;;2.50;;
66800;SDS011;53703;50.326;19.122;2023-04-03T09:01:37;6.50;;;2.00;;
66800;SDS011;53703;50.326;19.122;2023-04-03T09:04:32;4.70;;;2.20;;
66800;SDS011;53703;50.326;19.122;2023-04-03T09:07:33;4.40;;;2.20;;
66800;SDS011;53703;50.326;19.122;2023-04-03T09:10:34;4.10;;;1.90;;
66800;SDS011;53703;50.326;19.122;2023-04-03T09:13:34;6.10;;;2.00;;
66800;SDS011;53703;50.326;19.122;2023-04-03T09:16:43;6.60;;;2.30;;
66800;SDS011;53703;50.326;19.122;2023-04-03T09:19:47;4.10;;;1.90;;
66800;SDS011;53703;50.326;19.122;2023-04-03T09:22:47;3.80;;;2.00;;
66800;SDS011;53703;50.326;19.122;2023-04-03T09:25:43;6.20;;;2.20;;
66800;SDS011;53703;50.326;19.122;2023-04-03T09:28:41;6.30;;;2.40;;
66800;SDS011;53703;50.326;19.122;2023-04-03T09:31:42;4.60;;;2.10;;
66800;SDS011;53703;50.326;19.122;2023-04-03T09:34:37;5.90;;;2.10;;
66800;SDS011;53703;50.326;19.122;2023-04-03T09:37:38;4.30;;;2.00;;
66800;SDS011;53703;50.326;19.122;2023-04-03T09:40:37;5.90;;;2.20;;
66800;SDS011;53703;50.326;19.122;2023-04-03T09:43:32;5.90;;;2.30;;
66800;SDS011;53703;50.326;19.122;2023-04-03T09:46:30;4.50;;;2.40;;
66800;SDS011;53703;50.326;19.122;2023-04-03T09:49:26;5.20;;;2.10;;
66800;SDS011;53703;50.326;19.122;2023-04-03T09:52:25;3.80;;;1.90;;
66800;SDS011;53703;50.326;19.122;2023-04-03T09:55:21;5.00;;;1.90;;
66800;SDS011;53703;50.326;19.122;2023-04-03T09:58:28;5.80;;;2.00;;
66800;SDS011;53703;50.326;19.122;2023-04-03T10:01:41;5.50;;;2.20;;
66800;SDS011;53703;50.326;19.122;2023-04-03T10:04:47;3.20;;;2.00;;
66800;SDS011;53703;50.326;19.122;2023-04-03T10:08:08;6.20;;;1.80;;
66800;SDS011;53703;50.326;19.122;2023-04-03T10:11:13;6.50;;;2.00;;
66800;SDS011;53703;50.326;19.122;2023-04-03T10:14:30;5.30;;;1.80;;
66800;SDS011;53703;50.326;19.122;2023-04-03T10:17:29;5.70;;;2.10;;
66800;SDS011;53703;50.326;19.122;2023-04-03T10:20:34;5.20;;;1.90;;
66800;SDS011;53703;50.326;19.122;2023-04-03T10:23:26;4.50;;;2.10;;
66800;SDS011;53703;50.326;19.122;2023-04-03T10:26:29;3.70;;;2.10;;
66800;SDS011;53703;50.326;19.122;2023-04-03T10:29:37;5.10;;;1.70;;
66800;SDS011;53703;50.326;19.122;2023-04-03T10:32:45;6.40;;;1.90;;
66800;SDS011;53703;50.326;19.122;2023-04-03T10:35:52;6.90;;;2.10;;
66800;SDS011;53703;50.326;19.122;2023-04-03T10:39:00;6.60;;;1.70;;
66800;SDS011;53703;50.326;19.122;2023-04-03T10:42:05;5.60;;;1.70;;
66800;SDS011;53703;50.326;19.122;2023-04-03T10:45:20;4.70;;;1.70;;
66800;SDS011;53703;50.326;19.122;2023-04-03T10:48:26;5.10;;;1.90;;
66800;SDS011;53703;50.326;19.122;2023-04-03T10:51:31;5.10;;;1.80;;
66800;SDS011;53703;50.326;19.122;2023-04-03T10:54:32;9.30;;;1.90;;
66800;SDS011;53703;50.326;19.122;2023-04-03T10:57:31;4.30;;;2.00;;
66800;SDS011;53703;50.326;19.122;2023-04-03T11:00:29;6.50;;;2.10;;
66800;SDS011;53703;50.326;19.122;2023-04-03T11:03:33;5.00;;;2.00;;
66800;SDS011;53703;50.326;19.122;2023-04-03T11:06:36;8.20;;;1.80;;
66800;SDS011;53703;50.326;19.122;2023-04-03T11:09:35;4.80;;;2.10;;
66800;SDS011;53703;50.326;19.122;2023-04-03T11:12:36;4.10;;;1.90;;
66800;SDS011;53703;50.326;19.122;2023-04-03T11:15:34;4.30;;;2.40;;
66800;SDS011;53703;50.326;19.122;2023-04-03T11:18:32;6.30;;;1.90;;
66800;SDS011;53703;50.326;19.122;2023-04-03T11:21:34;7.30;;;2.70;;
66800;SDS011;53703;50.326;19.122;2023-04-03T11:24:32;6.60;;;2.50;;
66800;SDS011;53703;50.326;19.122;2023-04-03T11:27:30;3.90;;;1.80;;
66800;SDS011;53703;50.326;19.122;2023-04-03T11:30:32;5.20;;;2.30;;
66800;SDS011;53703;50.326;19.122;2023-04-03T11:33:43;4.80;;;2.10;;
66800;SDS011;53703;50.326;19.122;2023-04-03T11:36:44;5.80;;;2.20;;
66800;SDS011;53703;50.326;19.122;2023-04-03T11:39:40;4.50;;;2.30;;
66800;SDS011;53703;50.326;19.122;2023-04-03T11:42:47;4.30;;;1.90;;
66800;SDS011;53703;50.326;19.122;2023-04-03T11:45:53;5.60;;;2.30;;
66800;SDS011;53703;50.326;19.122;2023-04-03T11:48:53;4.10;;;1.90;;
66800;SDS011;53703;50.326;19.122;2023-04-03T11:51:47;5.30;;;2.20;;
66800;SDS011;53703;50.326;19.122;2023-04-03T11:54:50;4.90;;;2.20;;
66800;SDS011;53703;50.326;19.122;2023-04-03T11:58:09;3.30;;;1.80;;
66800;SDS011;53703;50.326;19.122;2023-04-03T12:01:13;5.00;;;2.10;;
66800;SDS011;53703;50.326;19.122;2023-04-03T12:04:36;3.90;;;2.20;;
66800;SDS011;53703;50.326;19.122;2023-04-03T12:07:30;3.60;;;2.10;;
66800;SDS011;53703;50.326;19.122;2023-04-03T12:10:23;4.50;;;2.10;;
66800;SDS011;53703;50.326;19.122;2023-04-03T12:13:22;4.00;;;2.00;;
66800;SDS011;53703;50.326;19.122;2023-04-03T12:16:22;3.50;;;2.00;;
66800;SDS011;53703;50.326;19.122;2023-04-03T12:19:34;4.90;;;2.20;;
66800;SDS011;53703;50.326;19.122;2023-04-03T12:22:34;5.00;;;1.90;;
66800;SDS011;53703;50.326;19.122;2023-04-03T12:25:49;4.90;;;2.10;;
66800;SDS011;53703;50.326;19.122;2023-04-03T12:28:43;4.00;;;2.00;;
66800;SDS011;53703;50.326;19.122;2023-04-03T12:31:42;5.00;;;2.30;;
66800;SDS011;53703;50.326;19.122;2023-04-03T12:34:53;4.90;;;2.00;;
66800;SDS011;53703;50.326;19.122;2023-04-03T12:37:49;4.70;;;2.30;;
66800;SDS011;53703;50.326;19.122;2023-04-03T12:40:51;5.80;;;2.20;;
66800;SDS011;53703;50.326;19.122;2023-04-03T12:43:56;4.40;;;2.10;;
66800;SDS011;53703;50.326;19.122;2023-04-03T12:47:02;5.20;;;2.20;;
66800;SDS011;53703;50.326;19.122;2023-04-03T12:50:20;4.40;;;1.90;;
66800;SDS011;53703;50.326;19.122;2023-04-03T12:53:16;3.70;;;1.80;;
66800;SDS011;53703;50.326;19.122;2023-04-03T12:56:24;7.80;;;2.20;;
66800;SDS011;53703;50.326;19.122;2023-04-03T12:59:23;4.10;;;2.10;;
66800;SDS011;53703;50.326;19.122;2023-04-03T13:02:22;3.40;;;2.20;;
66800;SDS011;53703;50.326;19.122;2023-04-03T13:05:19;4.20;;;2.00;;
66800;SDS011;53703;50.326;19.122;2023-04-03T13:08:14;3.60;;;1.90;;
66800;SDS011;53703;50.326;19.122;2023-04-03T13:11:10;3.30;;;2.00;;
66800;SDS011;53703;50.326;19.122;2023-04-03T13:14:14;3.80;;;2.00;;
66800;SDS011;53703;50.326;19.122;2023-04-03T13:17:15;4.60;;;2.10;;
66800;SDS011;53703;50.326;19.122;2023-04-03T13:20:14;3.10;;;1.70;;
66800;SDS011;53703;50.326;19.122;2023-04-03T13:23:11;4.20;;;2.20;;
66800;SDS011;53703;50.326;19.122;2023-04-03T13:26:09;4.10;;;1.80;;
66800;SDS011;53703;50.326;19.122;2023-04-03T13:29:05;6.50;;;2.20;;
66800;SDS011;53703;50.326;19.122;2023-04-03T13:32:20;3.70;;;2.00;;
66800;SDS011;53703;50.326;19.122;2023-04-03T13:35:32;3.40;;;2.10;;
66800;SDS011;53703;50.326;19.122;2023-04-03T13:38:30;3.50;;;1.80;;
66800;SDS011;53703;50.326;19.122;2023-04-03T13:41:29;2.70;;;1.50;;
66800;SDS011;53703;50.326;19.122;2023-04-03T13:44:35;5.20;;;2.10;;
66800;SDS011;53703;50.326;19.122;2023-04-03T13:47:39;3.80;;;2.20;;
66800;SDS011;53703;50.326;19.122;2023-04-03T13:50:40;3.40;;;2.00;;
66800;SDS011;53703;50.326;19.122;2023-04-03T13:53:50;4.50;;;1.90;;
66800;SDS011;53703;50.326;19.122;2023-04-03T13:56:46;3.60;;;1.70;;
66800;SDS011;53703;50.326;19.122;2023-04-03T13:59:35;3.70;;;1.80;;
66800;SDS011;53703;50.326;19.122;2023-04-03T14:02:33;5.70;;;2.10;;
66800;SDS011;53703;50.326;19.122;2023-04-03T14:05:31;3.80;;;1.90;;
66800;SDS011;53703;50.326;19.122;2023-04-03T14:08:25;4.30;;;1.60;;
66800;SDS011;53703;50.326;19.122;2023-04-03T14:11:32;5.00;;;1.80;;
66800;SDS011;53703;50.326;19.122;2023-04-03T14:14:29;124.80;;;41.50;;
66800;SDS011;53703;50.326;19.122;2023-04-03T14:17:27;280.50;;;94.40;;
66800;SDS011;53703;50.326;19.122;2023-04-03T14:20:24;135.30;;;45.40;;
66800;SDS011;53703;50.326;19.122;2023-04-03T14:23:18;174.30;;;55.60;;
66800;SDS011;53703;50.326;19.122;2023-04-03T14:26:14;164.20;;;53.10;;
66800;SDS011;53703;50.326;19.122;2023-04-03T14:29:27;189.60;;;65.40;;
66800;SDS011;53703;50.326;19.122;2023-04-03T14:32:22;154.00;;;50.60;;
66800;SDS011;53703;50.326;19.122;2023-04-03T14:35:17;138.00;;;46.60;;
66800;SDS011;53703;50.326;19.122;2023-04-03T14:38:20;133.20;;;43.10;;
66800;SDS011;53703;50.326;19.122;2023-04-03T14:41:18;125.00;;;43.80;;
66800;SDS011;53703;50.326;19.122;2023-04-03T14:47:10;122.40;;;39.00;;
66800;SDS011;53703;50.326;19.122;2023-04-03T14:50:22;102.80;;;35.30;;
66800;SDS011;53703;50.326;19.122;2023-04-03T14:53:19;103.10;;;35.10;;
66800;SDS011;53703;50.326;19.122;2023-04-03T14:56:29;108.60;;;33.20;;
66800;SDS011;53703;50.326;19.122;2023-04-03T14:59:23;97.30;;;30.30;;
66800;SDS011;53703;50.326;19.122;2023-04-03T15:02:26;97.70;;;33.00;;
66800;SDS011;53703;50.326;19.122;2023-04-03T15:05:21;94.60;;;31.50;;
66800;SDS011;53703;50.326;19.122;2023-04-03T15:08:19;91.90;;;30.80;;
66800;SDS011;53703;50.326;19.122;2023-04-03T15:11:15;83.60;;;25.60;;
66800;SDS011;53703;50.326;19.122;2023-04-03T15:14:10;81.30;;;26.70;;
66800;SDS011;53703;50.326;19.122;2023-04-03T15:17:18;84.00;;;26.70;;
66800;SDS011;53703;50.326;19.122;2023-04-03T15:20:15;77.20;;;24.30;;
66800;SDS011;53703;50.326;19.122;2023-04-03T15:23:11;74.00;;;22.70;;
66800;SDS011;53703;50.326;19.122;2023-04-03T15:26:06;74.40;;;24.10;;
66800;SDS011;53703;50.326;19.122;2023-04-03T15:29:00;65.00;;;21.50;;
66800;SDS011;53703;50.326;19.122;2023-04-03T15:31:55;67.10;;;21.70;;
66800;SDS011;53703;50.326;19.122;2023-04-03T15:34:49;67.00;;;20.30;;
66800;SDS011;53703;50.326;19.122;2023-04-03T15:37:47;64.20;;;20.10;;
66800;SDS011;53703;50.326;19.122;2023-04-03T15:40:47;57.60;;;18.50;;
66800;SDS011;53703;50.326;19.122;2023-04-03T15:43:40;61.20;;;20.50;;
66800;SDS011;53703;50.326;19.122;2023-04-03T15:46:34;55.70;;;17.60;;
66800;SDS011;53703;50.326;19.122;2023-04-03T15:49:29;59.40;;;17.90;;
66800;SDS011;53703;50.326;19.122;2023-04-03T15:52:24;50.70;;;17.60;;
66800;SDS011;53703;50.326;19.122;2023-04-03T15:55:18;53.10;;;16.90;;
66800;SDS011;53703;50.326;19.122;2023-04-03T15:58:12;48.20;;;16.60;;
66800;SDS011;53703;50.326;19.122;2023-04-03T16:01:06;46.30;;;15.70;;
66800;SDS011;53703;50.326;19.122;2023-04-03T16:04:01;46.60;;;16.40;;
66800;SDS011;53703;50.326;19.122;2023-04-03T16:06:55;46.50;;;15.20;;
66800;SDS011;53703;50.326;19.122;2023-04-03T16:09:49;47.70;;;14.00;;
66800;SDS011;53703;50.326;19.122;2023-04-03T16:12:39;41.60;;;14.00;;
66800;SDS011;53703;50.326;19.122;2023-04-03T16:15:37;42.10;;;14.30;;
66800;SDS011;53703;50.326;19.122;2023-04-03T16:18:33;40.50;;;13.30;;
66800;SDS011;53703;50.326;19.122;2023-04-03T16:21:28;36.20;;;12.70;;
66800;SDS011;53703;50.326;19.122;2023-04-03T16:24:23;36.50;;;12.20;;
66800;SDS011;53703;50.326;19.122;2023-04-03T16:27:17;34.60;;;11.70;;
66800;SDS011;53703;50.326;19.122;2023-04-03T16:30:12;38.40;;;11.20;;
66800;SDS011;53703;50.326;19.122;2023-04-03T16:33:06;39.00;;;13.10;;
66800;SDS011;53703;50.326;19.122;2023-04-03T16:36:01;36.60;;;12.40;;
66800;SDS011;53703;50.326;19.122;2023-04-03T16:38:55;30.70;;;10.50;;
66800;SDS011;53703;50.326;19.122;2023-04-03T16:41:48;30.60;;;10.10;;
66800;SDS011;53703;50.326;19.122;2023-04-03T16:44:43;29.60;;;10.30;;
66800;SDS011;53703;50.326;19.122;2023-04-03T16:47:37;29.80;;;9.50;;
66800;SDS011;53703;50.326;19.122;2023-04-03T16:50:31;29.10;;;9.90;;
66800;SDS011;53703;50.326;19.122;2023-04-03T16:53:25;20.40;;;7.00;;
66800;SDS011;53703;50.326;19.122;2023-04-03T16:56:19;28.30;;;8.80;;
66800;SDS011;53703;50.326;19.122;2023-04-03T16:59:13;30.50;;;9.10;;
66800;SDS011;53703;50.326;19.122;2023-04-03T17:02:07;21.30;;;8.40;;
66800;SDS011;53703;50.326;19.122;2023-04-03T17:05:01;25.00;;;8.20;;
66800;SDS011;53703;50.326;19.122;2023-04-03T17:07:56;23.60;;;8.00;;
66800;SDS011;53703;50.326;19.122;2023-04-03T17:10:49;25.60;;;8.60;;
66800;SDS011;53703;50.326;19.122;2023-04-03T17:13:44;22.80;;;7.90;;
66800;SDS011;53703;50.326;19.122;2023-04-03T17:16:39;21.60;;;7.70;;
66800;SDS011;53703;50.326;19.122;2023-04-03T17:19:33;21.90;;;7.60;;
66800;SDS011;53703;50.326;19.122;2023-04-03T17:22:28;17.90;;;7.10;;
66800;SDS011;53703;50.326;19.122;2023-04-03T17:25:23;18.70;;;6.40;;
66800;SDS011;53703;50.326;19.122;2023-04-03T17:28:16;22.10;;;7.60;;
66800;SDS011;53703;50.326;19.122;2023-04-03T17:31:12;18.20;;;6.40;;